Time;durP1;ratioP1;P1;durP2;ratioP2;P2;SDS_P1;SDS_P2;PMS_P1;PMS_P2;Temp;Humidity;BMP_temperature;BMP_pressure;BME280_temperature;BME280_humidity;BME280_pressure;Samples;Min_cycle;Max_cycle;Signal;HPM_P1;HPM_P2
2024/03/16 00:00:10;;;;;;;3.30;1.23;;;;;;;;;;6243175;23;20087;-90
2024/03/16 00:02:36;;;;;;;8.25;1.60;;;;;;;;;;6247316;23;20000;-90
2024/03/16 00:05:01;;;;;;;6.13;1.20;;;;;;;;;;6249160;22;19992;-95
2024/03/16 00:07:26;;;;;;;5.93;1.52;;;;;;;;;;6243767;22;20031;-94
2024/03/16 00:09:51;;;;;;;7.55;1.65;;;;;;;;;;6245197;23;20000;-93
2024/03/16 00:12:17;;;;;;;6.73;1.67;;;;;;;;;;6244652;23;20000;-94
2024/03/16 00:14:43;;;;;;;7.10;1.83;;;;;;;;;;6245467;23;20229;-93
2024/03/16 00:17:09;;;;;;;5.63;2.00;;;;;;;;;;6245157;22;20256;-93
2024/03/16 00:19:34;;;;;;;3.80;1.45;;;;;;;;;;6245446;23;19996;-93
2024/03/16 00:21:59;;;;;;;4.05;1.85;;;;;;;;;;6245060;23;20015;-93
2024/03/16 00:24:26;;;;;;;6.30;1.60;;;;;;;;;;6245336;23;20000;-93
2024/03/16 00:26:51;;;;;;;2.67;1.50;;;;;;;;;;6244524;22;20241;-91
2024/03/16 00:29:16;;;;;;;8.15;1.60;;;;;;;;;;6247076;23;19992;-93
2024/03/16 00:31:42;;;;;;;2.23;1.20;;;;;;;;;;6246672;23;19992;-94
2024/03/16 00:34:08;;;;;;;6.30;1.25;;;;;;;;;;6245279;23;20364;-93
2024/03/16 00:36:33;;;;;;;5.30;1.50;;;;;;;;;;6244573;22;20043;-93
2024/03/16 00:38:58;;;;;;;4.57;1.13;;;;;;;;;;6245053;23;20083;-93
2024/03/16 00:41:24;;;;;;;6.07;1.60;;;;;;;;;;6245274;23;20326;-94
2024/03/16 00:43:49;;;;;;;3.42;1.20;;;;;;;;;;6245138;23;20249;-93
2024/03/16 00:46:14;;;;;;;4.20;1.08;;;;;;;;;;6244492;22;20004;-93
2024/03/16 00:48:40;;;;;;;3.10;1.43;;;;;;;;;;6242748;23;19997;-92
2024/03/16 00:51:05;;;;;;;6.32;1.70;;;;;;;;;;6243317;23;20226;-92
2024/03/16 00:53:30;;;;;;;5.30;1.85;;;;;;;;;;6245048;23;19996;-93
2024/03/16 00:55:55;;;;;;;5.38;1.23;;;;;;;;;;6244162;22;20385;-93
2024/03/16 00:58:21;;;;;;;4.68;1.60;;;;;;;;;;6244861;23;20485;-93
2024/03/16 01:00:46;;;;;;;5.63;1.37;;;;;;;;;;6244909;23;19996;-94
2024/03/16 01:03:11;;;;;;;7.00;1.88;;;;;;;;;;6246294;23;20229;-93
2024/03/16 01:05:36;;;;;;;7.03;1.67;;;;;;;;;;6244806;22;20000;-93
2024/03/16 01:08:02;;;;;;;3.80;1.63;;;;;;;;;;6244875;23;20000;-93
2024/03/16 01:10:28;;;;;;;4.07;1.65;;;;;;;;;;6244859;23;20722;-92
2024/03/16 01:12:53;;;;;;;5.60;1.92;;;;;;;;;;6244948;23;20000;-94
2024/03/16 01:15:20;;;;;;;3.95;1.23;;;;;;;;;;6244895;22;20415;-92
2024/03/16 01:17:46;;;;;;;8.40;1.73;;;;;;;;;;6244178;23;20012;-93
2024/03/16 01:20:12;;;;;;;3.97;1.60;;;;;;;;;;6243443;23;20741;-93
2024/03/16 01:22:37;;;;;;;6.28;2.10;;;;;;;;;;6244794;23;20391;-93
2024/03/16 01:25:03;;;;;;;6.88;1.92;;;;;;;;;;6244707;23;20272;-94
2024/03/16 01:27:28;;;;;;;9.10;1.75;;;;;;;;;;6245015;22;20022;-93
2024/03/16 01:29:53;;;;;;;6.07;2.25;;;;;;;;;;6246243;23;19999;-92
2024/03/16 01:32:18;;;;;;;7.43;1.67;;;;;;;;;;6244488;23;20035;-94
2024/03/16 01:34:44;;;;;;;4.63;1.40;;;;;;;;;;6245051;23;20222;-93
2024/03/16 01:37:12;;;;;;;5.85;2.15;;;;;;;;;;6244858;22;20062;-93
2024/03/16 01:39:37;;;;;;;6.05;1.90;;;;;;;;;;6246297;22;19992;-93
2024/03/16 01:42:03;;;;;;;2.80;1.38;;;;;;;;;;6244496;23;20004;-93
2024/03/16 01:44:29;;;;;;;3.70;1.60;;;;;;;;;;6243967;23;20433;-94
2024/03/16 01:46:54;;;;;;;3.38;1.27;;;;;;;;;;6244379;22;20000;-93
2024/03/16 01:49:21;;;;;;;3.00;1.52;;;;;;;;;;6244539;23;19996;-93
2024/03/16 01:51:46;;;;;;;4.15;1.27;;;;;;;;;;6244359;23;20012;-93
2024/03/16 01:54:12;;;;;;;5.47;1.20;;;;;;;;;;6246017;23;20384;-93
2024/03/16 01:56:37;;;;;;;3.53;1.17;;;;;;;;;;6244143;22;20521;-93
2024/03/16 01:59:03;;;;;;;7.90;1.67;;;;;;;;;;6244303;23;20411;-92
2024/03/16 02:01:29;;;;;;;2.80;1.33;;;;;;;;;;6244295;23;20009;-93
2024/03/16 02:03:54;;;;;;;4.78;1.77;;;;;;;;;;6244197;23;19996;-94
2024/03/16 02:06:19;;;;;;;3.72;1.38;;;;;;;;;;6243915;22;20000;-94
2024/03/16 02:08:44;;;;;;;3.90;1.33;;;;;;;;;;6244289;23;20000;-93
2024/03/16 02:11:10;;;;;;;4.50;1.40;;;;;;;;;;6244625;23;20000;-93
2024/03/16 02:13:35;;;;;;;6.37;1.70;;;;;;;;;;6244447;23;20225;-94
2024/03/16 02:16:01;;;;;;;5.27;1.30;;;;;;;;;;6243768;22;20241;-92
2024/03/16 02:18:27;;;;;;;5.63;1.58;;;;;;;;;;6244107;23;20230;-94
2024/03/16 02:20:52;;;;;;;6.47;1.47;;;;;;;;;;6244108;23;20039;-93
2024/03/16 02:23:17;;;;;;;5.03;1.20;;;;;;;;;;6245403;23;20247;-93
2024/03/16 02:25:43;;;;;;;5.65;1.30;;;;;;;;;;6244017;22;19997;-93
2024/03/16 02:28:09;;;;;;;6.75;1.40;;;;;;;;;;6244116;23;20015;-94
2024/03/16 02:30:34;;;;;;;5.18;2.50;;;;;;;;;;6244201;23;20000;-94
2024/03/16 02:32:59;;;;;;;3.40;1.60;;;;;;;;;;6245508;22;20322;-93
2024/03/16 02:35:25;;;;;;;5.07;1.35;;;;;;;;;;6243708;22;20000;-94
2024/03/16 02:37:50;;;;;;;5.32;1.95;;;;;;;;;;6244187;23;20011;-93
2024/03/16 02:40:15;;;;;;;5.37;2.03;;;;;;;;;;6244058;23;20434;-94
2024/03/16 02:42:42;;;;;;;8.52;1.70;;;;;;;;;;6245769;22;20225;-93
2024/03/16 02:45:07;;;;;;;5.38;2.08;;;;;;;;;;6244448;23;20047;-94
2024/03/16 02:47:32;;;;;;;3.97;1.38;;;;;;;;;;6243768;22;20427;-93
2024/03/16 02:49:57;;;;;;;7.93;1.88;;;;;;;;;;6244190;23;20438;-93
2024/03/16 02:52:23;;;;;;;5.65;1.90;;;;;;;;;;6244074;23;20007;-93
2024/03/16 02:54:48;;;;;;;9.98;2.20;;;;;;;;;;6244411;23;20495;-93
2024/03/16 02:57:13;;;;;;;9.77;2.05;;;;;;;;;;6243827;22;20526;-92
2024/03/16 02:59:40;;;;;;;4.73;1.70;;;;;;;;;;6245296;23;20016;-93
2024/03/16 03:02:05;;;;;;;6.22;2.05;;;;;;;;;;6243911;23;20230;-93
2024/03/16 03:04:30;;;;;;;3.85;1.65;;;;;;;;;;6244220;23;19996;-94
2024/03/16 03:06:55;;;;;;;4.67;1.63;;;;;;;;;;6245729;22;20004;-94
2024/03/16 03:09:21;;;;;;;4.05;1.90;;;;;;;;;;6245196;23;20272;-91
2024/03/16 03:11:46;;;;;;;4.00;2.10;;;;;;;;;;6245215;23;20007;-94
2024/03/16 03:14:11;;;;;;;7.68;2.17;;;;;;;;;;6243777;23;20230;-93
2024/03/16 03:16:36;;;;;;;4.18;1.85;;;;;;;;;;6243815;22;20004;-93
2024/03/16 03:19:02;;;;;;;4.82;1.50;;;;;;;;;;6243741;23;19992;-93
2024/03/16 03:21:29;;;;;;;7.28;2.10;;;;;;;;;;6243371;23;20039;-93
2024/03/16 03:23:54;;;;;;;6.07;2.00;;;;;;;;;;6243418;23;20007;-93
2024/03/16 03:26:19;;;;;;;4.40;1.77;;;;;;;;;;6243431;22;20000;-94
2024/03/16 03:28:44;;;;;;;7.30;1.77;;;;;;;;;;6245122;23;20210;-93
2024/03/16 03:31:10;;;;;;;3.20;1.67;;;;;;;;;;6243469;23;20226;-94
2024/03/16 03:33:35;;;;;;;4.03;1.90;;;;;;;;;;6243907;23;20248;-94
2024/03/16 03:36:02;;;;;;;4.50;1.92;;;;;;;;;;6243183;22;20003;-93
2024/03/16 03:38:28;;;;;;;3.83;1.60;;;;;;;;;;6243627;23;20003;-92
2024/03/16 03:40:53;;;;;;;2.90;1.27;;;;;;;;;;6243532;23;20446;-94
2024/03/16 03:43:22;;;;;;;3.92;1.48;;;;;;;;;;6243051;23;20031;-92
2024/03/16 03:45:50;;;;;;;6.63;1.95;;;;;;;;;;6243426;22;20481;-93
2024/03/16 03:50:50;;;;;;;6.10;1.67;;;;;;;;;;6245850;22;20004;-93
2024/03/16 03:53:15;;;;;;;8.05;2.05;;;;;;;;;;6245017;22;19995;-93
2024/03/16 03:55:41;;;;;;;4.22;1.60;;;;;;;;;;6243209;22;20010;-93
2024/03/16 03:58:06;;;;;;;7.65;2.17;;;;;;;;;;6243478;23;20006;-92
2024/03/16 04:00:33;;;;;;;2.65;1.17;;;;;;;;;;6243183;23;20095;-93
2024/03/16 04:02:58;;;;;;;8.98;2.10;;;;;;;;;;6243013;23;20018;-93
2024/03/16 04:05:24;;;;;;;9.50;2.72;;;;;;;;;;6244859;22;20016;-93
2024/03/16 04:07:50;;;;;;;4.63;1.98;;;;;;;;;;6244749;22;19997;-93
2024/03/16 04:10:15;;;;;;;8.90;2.40;;;;;;;;;;6243718;23;20012;-93
2024/03/16 04:12:40;;;;;;;5.95;2.33;;;;;;;;;;6243878;23;20007;-93
2024/03/16 04:15:06;;;;;;;6.93;2.55;;;;;;;;;;6244953;23;20050;-93
2024/03/16 04:17:31;;;;;;;7.18;2.20;;;;;;;;;;6243039;22;20443;-93
2024/03/16 04:19:56;;;;;;;8.95;2.72;;;;;;;;;;6243292;23;20396;-94
2024/03/16 04:22:22;;;;;;;7.27;2.83;;;;;;;;;;6244532;23;20027;-94
2024/03/16 04:24:47;;;;;;;6.50;2.20;;;;;;;;;;6243212;23;20245;-93
2024/03/16 04:27:12;;;;;;;7.03;2.92;;;;;;;;;;6244508;22;20541;-93
2024/03/16 04:29:37;;;;;;;12.27;3.23;;;;;;;;;;6243415;23;20312;-92
2024/03/16 04:32:02;;;;;;;9.88;3.53;;;;;;;;;;6243176;23;20706;-94
2024/03/16 04:34:28;;;;;;;13.13;3.47;;;;;;;;;;6243031;23;20387;-93
2024/03/16 04:36:53;;;;;;;11.83;3.10;;;;;;;;;;6242749;22;20008;-93
2024/03/16 04:39:21;;;;;;;10.73;3.22;;;;;;;;;;6243074;23;20229;-93
2024/03/16 04:41:47;;;;;;;8.25;3.38;;;;;;;;;;6243304;23;19996;-93
2024/03/16 04:44:12;;;;;;;5.70;2.75;;;;;;;;;;6243133;23;20134;-93
2024/03/16 04:46:38;;;;;;;6.45;3.10;;;;;;;;;;6242787;22;20028;-93
2024/03/16 04:49:04;;;;;;;6.47;2.50;;;;;;;;;;6242893;23;19996;-93
2024/03/16 04:51:29;;;;;;;9.10;2.58;;;;;;;;;;6244711;22;20711;-92
2024/03/16 04:53:54;;;;;;;9.27;2.80;;;;;;;;;;6242954;23;19996;-94
2024/03/16 04:56:20;;;;;;;7.75;4.32;;;;;;;;;;6243986;22;20415;-93
2024/03/16 04:58:45;;;;;;;8.13;2.87;;;;;;;;;;6244708;23;20492;-93
2024/03/16 05:01:12;;;;;;;7.57;3.27;;;;;;;;;;6245004;23;20285;-93
2024/03/16 05:03:37;;;;;;;6.30;2.50;;;;;;;;;;6244638;23;20221;-93
2024/03/16 05:06:03;;;;;;;9.15;2.80;;;;;;;;;;6244760;22;20000;-92
2024/03/16 05:08:29;;;;;;;9.82;3.15;;;;;;;;;;6244585;23;20031;-92
2024/03/16 05:10:54;;;;;;;5.90;2.85;;;;;;;;;;6244690;23;20000;-93
2024/03/16 05:13:19;;;;;;;8.82;3.10;;;;;;;;;;6246730;23;20003;-93
2024/03/16 05:15:45;;;;;;;8.65;2.63;;;;;;;;;;6244404;22;20000;-93
2024/03/16 05:18:11;;;;;;;8.45;2.75;;;;;;;;;;6244828;23;20007;-93
2024/03/16 05:20:36;;;;;;;7.63;2.25;;;;;;;;;;6244672;23;19996;-93
2024/03/16 05:23:02;;;;;;;8.73;2.67;;;;;;;;;;6244273;23;20062;-93
2024/03/16 05:25:28;;;;;;;5.47;2.67;;;;;;;;;;6244556;22;19997;-93
2024/03/16 05:27:53;;;;;;;6.45;2.53;;;;;;;;;;6246440;22;20322;-94
2024/03/16 05:30:18;;;;;;;8.90;2.40;;;;;;;;;;6246041;23;20000;-93
2024/03/16 05:32:43;;;;;;;5.57;2.40;;;;;;;;;;6244601;23;20230;-94
2024/03/16 05:35:10;;;;;;;8.32;2.42;;;;;;;;;;6244315;23;20000;-93
2024/03/16 05:37:36;;;;;;;5.63;2.22;;;;;;;;;;6244456;22;20095;-93
2024/03/16 05:40:01;;;;;;;12.65;3.35;;;;;;;;;;6244688;23;20027;-93
2024/03/16 05:42:27;;;;;;;8.00;3.40;;;;;;;;;;6244544;23;20058;-95
2024/03/16 05:44:52;;;;;;;8.95;3.15;;;;;;;;;;6244497;23;20007;-93
2024/03/16 05:47:21;;;;;;;8.13;2.95;;;;;;;;;;6244628;22;20000;-93
2024/03/16 05:49:46;;;;;;;7.82;2.72;;;;;;;;;;6244614;23;20419;-94
2024/03/16 05:52:12;;;;;;;7.30;3.17;;;;;;;;;;6244638;23;20066;-94
2024/03/16 05:54:37;;;;;;;8.70;3.57;;;;;;;;;;6244336;23;19996;-94
2024/03/16 05:57:03;;;;;;;7.70;2.87;;;;;;;;;;6244205;22;20250;-92
2024/03/16 05:59:28;;;;;;;6.90;2.03;;;;;;;;;;6244340;23;20222;-93
2024/03/16 06:01:54;;;;;;;4.80;1.98;;;;;;;;;;6244720;23;20003;-94
2024/03/16 06:04:19;;;;;;;2.97;1.60;;;;;;;;;;6244436;23;20482;-93
2024/03/16 06:06:46;;;;;;;9.65;1.90;;;;;;;;;;6244046;22;20014;-93
2024/03/16 06:09:11;;;;;;;2.63;1.42;;;;;;;;;;6244043;23;19996;-93
2024/03/16 06:11:37;;;;;;;8.50;1.50;;;;;;;;;;6244245;23;20045;-93
2024/03/16 06:14:02;;;;;;;11.68;1.92;;;;;;;;;;6244650;23;20000;-93
2024/03/16 06:16:27;;;;;;;4.28;1.58;;;;;;;;;;6244121;22;20450;-94
2024/03/16 06:18:53;;;;;;;4.55;1.55;;;;;;;;;;6244160;23;19996;-94
2024/03/16 06:21:18;;;;;;;2.28;1.35;;;;;;;;;;6244112;23;20004;-93
2024/03/16 06:23:44;;;;;;;4.13;2.10;;;;;;;;;;6244205;23;20003;-94
2024/03/16 06:26:16;;;;;;;9.40;2.30;;;;;;;;;;6244025;22;20411;-94
2024/03/16 06:28:43;;;;;;;4.45;1.80;;;;;;;;;;6244109;23;20051;-94
2024/03/16 06:31:10;;;;;;;4.85;1.60;;;;;;;;;;6244361;23;20256;-93
2024/03/16 06:33:36;;;;;;;6.03;1.92;;;;;;;;;;6244704;23;20356;-93
2024/03/16 06:36:02;;;;;;;5.68;1.60;;;;;;;;;;6243739;22;20012;-92
2024/03/16 06:38:29;;;;;;;9.52;1.50;;;;;;;;;;6243893;23;20339;-92
2024/03/16 06:40:55;;;;;;;5.22;1.60;;;;;;;;;;6243902;23;20358;-92
2024/03/16 06:43:20;;;;;;;5.75;1.08;;;;;;;;;;6243937;23;20000;-92
2024/03/16 06:45:45;;;;;;;4.75;1.40;;;;;;;;;;6243860;22;20046;-92
2024/03/16 06:48:10;;;;;;;4.43;1.67;;;;;;;;;;6243675;23;20008;-91
2024/03/16 06:50:36;;;;;;;7.13;1.48;;;;;;;;;;6243831;23;20279;-93
2024/03/16 06:53:01;;;;;;;4.20;1.20;;;;;;;;;;6243861;23;19996;-93
2024/03/16 06:55:26;;;;;;;4.57;1.60;;;;;;;;;;6244299;22;20000;-93
2024/03/16 06:57:52;;;;;;;6.00;1.85;;;;;;;;;;6243851;23;20475;-93
2024/03/16 07:00:17;;;;;;;5.72;2.20;;;;;;;;;;6243789;23;20427;-93
2024/03/16 07:02:42;;;;;;;4.03;2.10;;;;;;;;;;6243665;23;20476;-94
2024/03/16 07:05:09;;;;;;;6.18;3.03;;;;;;;;;;6243780;23;20043;-93
2024/03/16 07:07:34;;;;;;;11.77;3.78;;;;;;;;;;6244087;22;20437;-93
2024/03/16 07:09:59;;;;;;;6.60;3.80;;;;;;;;;;6243454;23;20000;-94
2024/03/16 07:12:25;;;;;;;5.17;2.63;;;;;;;;;;6243968;23;20035;-93
2024/03/16 07:14:50;;;;;;;6.88;2.72;;;;;;;;;;6243596;23;20317;-94
2024/03/16 07:17:15;;;;;;;5.50;3.10;;;;;;;;;;6245340;22;20007;-94
2024/03/16 07:19:40;;;;;;;8.03;2.90;;;;;;;;;;6243452;23;20222;-92
2024/03/16 07:22:05;;;;;;;14.50;3.17;;;;;;;;;;6243953;23;20237;-94
2024/03/16 07:24:30;;;;;;;5.43;2.30;;;;;;;;;;6244006;23;20549;-93
2024/03/16 07:26:56;;;;;;;9.87;3.53;;;;;;;;;;6243363;22;20680;-93
2024/03/16 07:29:21;;;;;;;9.80;3.70;;;;;;;;;;6243680;23;20218;-93
2024/03/16 07:31:47;;;;;;;10.27;3.70;;;;;;;;;;6243623;23;20230;-93
2024/03/16 07:34:12;;;;;;;8.65;3.88;;;;;;;;;;6243949;23;20217;-94
2024/03/16 07:36:38;;;;;;;10.77;4.30;;;;;;;;;;6243481;22;20015;-94
2024/03/16 07:39:08;;;;;;;10.23;4.68;;;;;;;;;;6243184;23;20035;-93
2024/03/16 07:41:34;;;;;;;11.55;5.85;;;;;;;;;;6243709;23;20318;-93
2024/03/16 07:44:00;;;;;;;11.48;5.03;;;;;;;;;;6243379;23;19996;-92
2024/03/16 07:46:25;;;;;;;15.63;7.13;;;;;;;;;;6243444;22;20323;-93
2024/03/16 07:48:50;;;;;;;12.32;5.80;;;;;;;;;;6243150;23;19992;-93
2024/03/16 07:51:17;;;;;;;14.77;5.75;;;;;;;;;;6217660;23;20024;-91
2024/03/16 07:53:42;;;;;;;15.07;5.80;;;;;;;;;;6243219;23;20522;-92
2024/03/16 07:56:09;;;;;;;11.95;5.72;;;;;;;;;;6242881;22;20335;-94
2024/03/16 07:58:34;;;;;;;9.15;4.88;;;;;;;;;;6243217;23;20095;-93
2024/03/16 08:01:00;;;;;;;12.57;4.53;;;;;;;;;;6243258;23;20423;-94
2024/03/16 08:03:26;;;;;;;12.48;4.80;;;;;;;;;;6243207;23;20438;-93
2024/03/16 08:05:51;;;;;;;13.93;5.05;;;;;;;;;;6243053;22;20074;-92
2024/03/16 08:08:17;;;;;;;10.45;4.65;;;;;;;;;;6242884;23;20009;-93
2024/03/16 08:10:42;;;;;;;16.52;5.57;;;;;;;;;;6243347;23;20003;-92
2024/03/16 08:13:07;;;;;;;9.88;3.97;;;;;;;;;;6243320;23;20075;-93
2024/03/16 08:15:32;;;;;;;12.00;4.63;;;;;;;;;;6243001;22;19996;-94
2024/03/16 08:18:00;;;;;;;12.63;4.55;;;;;;;;;;6243059;23;20004;-93
2024/03/16 08:20:25;;;;;;;13.38;4.40;;;;;;;;;;6243204;23;20027;-93
2024/03/16 08:22:54;;;;;;;12.32;4.55;;;;;;;;;;6242870;23;20070;-92
2024/03/16 08:25:22;;;;;;;8.07;4.15;;;;;;;;;;6242898;22;20083;-94
2024/03/16 08:27:48;;;;;;;8.93;4.45;;;;;;;;;;6244536;23;19996;-92
2024/03/16 08:30:13;;;;;;;10.93;4.95;;;;;;;;;;6244040;23;20075;-93
2024/03/16 08:32:38;;;;;;;8.63;3.17;;;;;;;;;;6246603;22;20386;-94
2024/03/16 08:35:05;;;;;;;10.17;2.90;;;;;;;;;;6246744;23;20003;-93
2024/03/16 08:37:30;;;;;;;10.43;4.32;;;;;;;;;;6244946;22;20245;-93
2024/03/16 08:39:56;;;;;;;8.73;2.47;;;;;;;;;;6244921;23;20007;-94
2024/03/16 08:42:21;;;;;;;5.30;2.47;;;;;;;;;;6245077;23;20006;-94
2024/03/16 08:44:46;;;;;;;7.53;2.33;;;;;;;;;;6246398;23;20035;-95
2024/03/16 08:47:11;;;;;;;5.82;1.90;;;;;;;;;;6246287;22;20256;-94
2024/03/16 08:49:37;;;;;;;8.20;2.08;;;;;;;;;;6246426;23;19992;-93
2024/03/16 08:52:02;;;;;;;8.60;2.43;;;;;;;;;;6244895;23;20004;-95
2024/03/16 08:54:29;;;;;;;5.85;2.05;;;;;;;;;;6245281;23;20215;-94
2024/03/16 08:56:54;;;;;;;7.88;1.75;;;;;;;;;;6244880;22;20012;-93
2024/03/16 08:59:20;;;;;;;6.33;1.77;;;;;;;;;;6244921;23;20481;-93
2024/03/16 09:01:45;;;;;;;8.15;1.83;;;;;;;;;;6246401;23;20316;-92
2024/03/16 09:04:12;;;;;;;8.77;1.88;;;;;;;;;;6246082;23;20327;-94
2024/03/16 09:06:40;;;;;;;9.20;2.45;;;;;;;;;;6244716;22;20032;-94
2024/03/16 09:09:10;;;;;;;6.00;1.98;;;;;;;;;;6245225;23;20000;-91
2024/03/16 09:11:35;;;;;;;6.80;2.40;;;;;;;;;;6244636;23;20024;-94
2024/03/16 09:14:02;;;;;;;9.57;1.98;;;;;;;;;;6245275;23;20318;-93
2024/03/16 09:16:27;;;;;;;7.60;2.42;;;;;;;;;;6246181;22;20007;-93
2024/03/16 09:18:53;;;;;;;8.33;2.30;;;;;;;;;;6244469;23;20079;-91
2024/03/16 09:21:18;;;;;;;9.18;2.33;;;;;;;;;;6246007;22;20740;-94
2024/03/16 09:23:44;;;;;;;5.57;2.13;;;;;;;;;;6246530;23;20004;-94
2024/03/16 09:26:09;;;;;;;6.57;2.17;;;;;;;;;;6245456;22;20008;-95
2024/03/16 09:28:34;;;;;;;9.30;2.10;;;;;;;;;;6246588;23;20411;-95
2024/03/16 09:31:04;;;;;;;7.75;2.22;;;;;;;;;;6246825;23;20232;-95
2024/03/16 09:33:29;;;;;;;7.88;2.28;;;;;;;;;;6246503;23;20004;-95
2024/03/16 09:35:54;;;;;;;8.68;2.40;;;;;;;;;;6245810;22;20049;-95
2024/03/16 09:38:19;;;;;;;9.60;2.50;;;;;;;;;;6245890;23;20004;-95
2024/03/16 09:40:51;;;;;;;12.40;2.40;;;;;;;;;;6245732;23;20226;-95
2024/03/16 09:43:17;;;;;;;8.75;2.58;;;;;;;;;;6245546;23;20024;-96
2024/03/16 09:45:44;;;;;;;8.48;1.90;;;;;;;;;;6245810;22;20004;-96
2024/03/16 09:48:12;;;;;;;8.35;2.20;;;;;;;;;;6245863;23;20004;-95
2024/03/16 09:50:40;;;;;;;6.30;1.98;;;;;;;;;;6246081;23;20004;-96
2024/03/16 09:53:09;;;;;;;6.35;2.20;;;;;;;;;;6245181;23;19996;-96
2024/03/16 09:55:34;;;;;;;13.18;2.83;;;;;;;;;;6245596;22;20097;-95
2024/03/16 09:57:59;;;;;;;8.55;1.95;;;;;;;;;;6245215;23;20442;-95
2024/03/16 10:00:26;;;;;;;11.02;3.03;;;;;;;;;;6245552;23;20083;-96
2024/03/16 10:02:51;;;;;;;12.05;3.00;;;;;;;;;;6246059;23;20004;-95
2024/03/16 10:05:17;;;;;;;7.22;1.95;;;;;;;;;;6247325;23;19996;-96
2024/03/16 10:07:42;;;;;;;8.23;2.30;;;;;;;;;;6249951;22;20003;-94
2024/03/16 10:10:15;;;;;;;3.70;1.85;;;;;;;;;;6247274;23;20331;-95
2024/03/16 10:12:40;;;;;;;6.18;2.30;;;;;;;;;;6244992;23;20000;-95
2024/03/16 10:15:15;;;;;;;6.75;2.25;;;;;;;;;;6245520;23;20395;-95
2024/03/16 10:17:44;;;;;;;7.00;2.70;;;;;;;;;;6244406;22;20064;-93
2024/03/16 10:20:16;;;;;;;10.60;2.40;;;;;;;;;;6244532;23;20008;-94
2024/03/16 10:22:49;;;;;;;4.70;2.13;;;;;;;;;;6244578;23;20496;-95
2024/03/16 10:25:18;;;;;;;8.73;3.13;;;;;;;;;;6250506;23;19996;-94
2024/03/16 10:27:44;;;;;;;11.05;1.92;;;;;;;;;;6247537;22;19996;-96
2024/03/16 10:30:11;;;;;;;6.18;2.15;;;;;;;;;;6254214;23;20339;-94
2024/03/16 10:32:37;;;;;;;6.30;1.80;;;;;;;;;;6244870;22;20386;-93
2024/03/16 10:35:07;;;;;;;8.40;1.70;;;;;;;;;;6243770;23;20415;-94
2024/03/16 10:37:35;;;;;;;8.88;2.75;;;;;;;;;;6242877;22;20012;-93
2024/03/16 10:40:13;;;;;;;7.78;2.25;;;;;;;;;;6243418;23;20033;-93
2024/03/16 10:42:39;;;;;;;3.58;1.63;;;;;;;;;;6243901;23;20426;-92
2024/03/16 10:45:05;;;;;;;13.88;2.15;;;;;;;;;;6243341;23;20142;-93
2024/03/16 10:47:30;;;;;;;11.48;2.28;;;;;;;;;;6243398;22;20438;-93
2024/03/16 10:49:56;;;;;;;5.05;1.98;;;;;;;;;;6243976;23;19996;-92
2024/03/16 10:52:24;;;;;;;9.07;2.08;;;;;;;;;;6242573;23;20000;-93
2024/03/16 10:54:51;;;;;;;7.25;2.08;;;;;;;;;;6243477;23;20031;-92
2024/03/16 10:57:16;;;;;;;10.57;2.10;;;;;;;;;;6243179;22;20044;-92
2024/03/16 10:59:43;;;;;;;7.63;2.17;;;;;;;;;;6243364;23;20330;-93
2024/03/16 11:02:11;;;;;;;3.55;1.58;;;;;;;;;;6243720;23;20004;-93
2024/03/16 11:04:50;;;;;;;11.57;2.10;;;;;;;;;;6243491;23;20000;-92
2024/03/16 11:07:17;;;;;;;4.90;2.13;;;;;;;;;;6242719;22;20478;-94
2024/03/16 11:09:43;;;;;;;3.60;1.80;;;;;;;;;;6246180;23;20023;-95
2024/03/16 11:12:29;;;;;;;4.30;1.75;;;;;;;;;;6250202;23;20493;-96
2024/03/16 11:15:16;;;;;;;4.35;1.75;;;;;;;;;;6247596;23;20466;-96
2024/03/16 11:17:41;;;;;;;6.13;1.98;;;;;;;;;;6251482;22;20031;-96
2024/03/16 11:20:25;;;;;;;6.40;1.75;;;;;;;;;;6247171;23;20000;-96
2024/03/16 11:22:51;;;;;;;4.47;2.05;;;;;;;;;;6268676;22;20011;-95
2024/03/16 11:25:20;;;;;;;11.77;2.25;;;;;;;;;;6244137;23;20000;-94
2024/03/16 11:27:49;;;;;;;5.40;1.98;;;;;;;;;;6245040;23;20000;-96
2024/03/16 11:30:18;;;;;;;11.70;2.40;;;;;;;;;;6245509;23;20000;-95
2024/03/16 11:32:43;;;;;;;5.22;1.90;;;;;;;;;;6245863;23;20000;-96
2024/03/16 11:35:12;;;;;;;6.53;1.30;;;;;;;;;;6245694;23;20030;-95
2024/03/16 11:37:38;;;;;;;6.00;1.45;;;;;;;;;;6243943;22;20427;-96
2024/03/16 11:40:03;;;;;;;7.22;1.25;;;;;;;;;;6246512;23;20288;-94
2024/03/16 11:42:29;;;;;;;4.07;1.25;;;;;;;;;;6244664;23;20000;-94
2024/03/16 11:44:55;;;;;;;5.50;1.58;;;;;;;;;;6245734;23;19996;-94
2024/03/16 11:47:20;;;;;;;6.35;1.02;;;;;;;;;;6271661;22;20007;-96
2024/03/16 11:49:46;;;;;;;3.75;0.98;;;;;;;;;;6251121;22;19999;-93
2024/03/16 11:52:11;;;;;;;5.03;1.20;;;;;;;;;;6248824;22;20000;-94
2024/03/16 11:54:37;;;;;;;3.05;0.98;;;;;;;;;;6250671;22;20000;-95
2024/03/16 11:57:05;;;;;;;3.55;0.73;;;;;;;;;;6251983;22;20434;-96
2024/03/16 11:59:32;;;;;;;7.05;1.30;;;;;;;;;;6249269;22;19996;-92
2024/03/16 12:01:58;;;;;;;7.72;1.63;;;;;;;;;;6247759;22;20019;-91
2024/03/16 12:04:25;;;;;;;5.97;1.20;;;;;;;;;;6275124;22;19992;-90
2024/03/16 12:06:52;;;;;;;3.85;1.17;;;;;;;;;;6248506;22;20058;-92
2024/03/16 12:09:30;;;;;;;5.18;0.85;;;;;;;;;;6249824;22;20027;-92
2024/03/16 12:11:56;;;;;;;2.50;0.88;;;;;;;;;;6249828;22;20000;-91
2024/03/16 12:14:22;;;;;;;5.82;0.90;;;;;;;;;;6249734;22;20004;-91
2024/03/16 12:16:48;;;;;;;4.40;0.80;;;;;;;;;;6276642;22;20071;-91
2024/03/16 12:19:14;;;;;;;2.92;0.90;;;;;;;;;;6250099;22;20006;-92
2024/03/16 12:21:44;;;;;;;2.47;0.88;;;;;;;;;;6249948;22;19996;-93
2024/03/16 12:24:17;;;;;;;4.75;0.88;;;;;;;;;;6250254;22;20373;-93
2024/03/16 12:26:45;;;;;;;5.30;1.73;;;;;;;;;;6250315;22;20074;-93
2024/03/16 12:29:17;;;;;;;3.47;0.90;;;;;;;;;;6249771;22;19999;-93
2024/03/16 12:31:43;;;;;;;3.05;0.60;;;;;;;;;;6250371;22;19992;-93
2024/03/16 12:34:11;;;;;;;4.03;1.20;;;;;;;;;;6250264;22;20004;-93
2024/03/16 12:36:38;;;;;;;5.88;2.05;;;;;;;;;;6248918;22;20011;-93
2024/03/16 12:39:07;;;;;;;9.15;1.55;;;;;;;;;;6230382;22;20012;-96
2024/03/16 12:41:36;;;;;;;6.68;0.90;;;;;;;;;;6219050;23;20000;-90
2024/03/16 12:44:03;;;;;;;5.05;0.93;;;;;;;;;;6224967;23;20000;-94
2024/03/16 12:46:28;;;;;;;6.60;1.27;;;;;;;;;;6234542;22;20078;-94
2024/03/16 12:48:54;;;;;;;3.63;0.85;;;;;;;;;;6250183;22;20035;-94
2024/03/16 12:51:19;;;;;;;5.50;1.58;;;;;;;;;;6249687;22;20007;-93
2024/03/16 12:53:45;;;;;;;5.03;0.90;;;;;;;;;;6250865;22;19996;-94
2024/03/16 12:56:11;;;;;;;3.78;0.73;;;;;;;;;;6249119;22;20476;-94
2024/03/16 12:58:36;;;;;;;4.13;1.05;;;;;;;;;;6249291;22;20012;-94
2024/03/16 13:01:02;;;;;;;3.72;1.05;;;;;;;;;;6276622;22;20189;-92
2024/03/16 13:03:28;;;;;;;4.35;1.90;;;;;;;;;;6249252;22;20452;-93
2024/03/16 13:05:54;;;;;;;3.78;1.00;;;;;;;;;;6249390;22;20052;-93
2024/03/16 13:08:19;;;;;;;6.80;1.15;;;;;;;;;;6250085;22;20006;-93
2024/03/16 13:10:45;;;;;;;7.18;1.33;;;;;;;;;;6249923;22;19996;-94
2024/03/16 13:13:10;;;;;;;4.22;1.63;;;;;;;;;;6253999;22;20027;-94
2024/03/16 13:15:35;;;;;;;3.72;1.00;;;;;;;;;;6249339;22;19995;-92
2024/03/16 13:18:04;;;;;;;6.78;1.52;;;;;;;;;;6250836;22;20008;-96
2024/03/16 13:20:29;;;;;;;9.35;1.52;;;;;;;;;;6250691;22;20027;-93
2024/03/16 13:22:54;;;;;;;2.73;1.10;;;;;;;;;;6276118;22;19995;-92
2024/03/16 13:25:19;;;;;;;9.00;1.80;;;;;;;;;;6250249;22;20221;-95
2024/03/16 13:27:45;;;;;;;5.20;1.07;;;;;;;;;;6276862;22;20307;-93
2024/03/16 13:30:10;;;;;;;8.98;1.58;;;;;;;;;;6276436;22;20217;-92
2024/03/16 13:32:37;;;;;;;6.75;1.80;;;;;;;;;;6249339;22;20019;-92
2024/03/16 13:35:03;;;;;;;4.50;1.20;;;;;;;;;;6249027;22;19987;-92
2024/03/16 13:37:29;;;;;;;4.93;1.27;;;;;;;;;;6240216;22;20016;-96
2024/03/16 13:42:29;;;;;;;4.15;1.33;;;;;;;;;;6245957;22;20431;-92
2024/03/16 13:44:55;;;;;;;8.57;1.73;;;;;;;;;;6219338;23;20003;-92
2024/03/16 13:47:21;;;;;;;4.20;1.00;;;;;;;;;;6244329;22;20236;-92
2024/03/16 13:49:47;;;;;;;9.95;2.17;;;;;;;;;;6248833;22;20667;-92
2024/03/16 13:52:13;;;;;;;6.50;2.00;;;;;;;;;;6275877;22;20003;-92
2024/03/16 13:54:41;;;;;;;4.22;1.00;;;;;;;;;;6277221;22;20395;-95
2024/03/16 13:57:07;;;;;;;9.13;1.33;;;;;;;;;;6277236;22;20000;-94
2024/03/16 13:59:32;;;;;;;5.07;1.20;;;;;;;;;;6249442;22;19992;-91
2024/03/16 14:02:03;;;;;;;4.35;1.27;;;;;;;;;;6278175;22;20496;-95
2024/03/16 14:04:29;;;;;;;4.50;1.08;;;;;;;;;;6280352;22;19992;-91
2024/03/16 14:06:54;;;;;;;6.60;1.08;;;;;;;;;;6250961;22;20003;-94
2024/03/16 14:09:20;;;;;;;10.50;0.93;;;;;;;;;;6279550;22;20125;-94
2024/03/16 14:11:45;;;;;;;5.13;1.33;;;;;;;;;;6250639;22;20319;-93
2024/03/16 14:14:10;;;;;;;3.00;0.90;;;;;;;;;;6273962;22;19995;-95
2024/03/16 14:16:36;;;;;;;2.97;0.82;;;;;;;;;;6249455;22;20086;-93
2024/03/16 14:19:02;;;;;;;6.60;1.05;;;;;;;;;;6248904;22;20083;-91
2024/03/16 14:21:28;;;;;;;10.90;1.77;;;;;;;;;;6276452;22;20019;-95
2024/03/16 14:23:53;;;;;;;4.85;1.15;;;;;;;;;;6249906;22;20003;-94
2024/03/16 14:26:19;;;;;;;11.63;2.30;;;;;;;;;;6277127;22;20334;-95
2024/03/16 14:28:44;;;;;;;4.22;1.25;;;;;;;;;;6249419;22;20014;-94
2024/03/16 14:31:09;;;;;;;3.77;1.30;;;;;;;;;;6249800;22;19996;-94
2024/03/16 14:33:37;;;;;;;6.32;1.30;;;;;;;;;;6250653;22;20225;-94
2024/03/16 14:36:03;;;;;;;6.03;1.10;;;;;;;;;;6249118;22;20006;-93
2024/03/16 14:38:28;;;;;;;7.03;1.05;;;;;;;;;;6249781;22;20000;-94